Time;durP1;ratioP1;P1;durP2;ratioP2;P2;SDS_P1;SDS_P2;PMS_P1;PMS_P2;Temp;Humidity;BMP_temperature;BMP_pressure;BME280_temperature;BME280_humidity;BME280_pressure;Samples;Min_cycle;Max_cycle;Signal;HPM_P1;HPM_P2
2021/03/02 00:01:04;;;;;;;90.93;11.52;;;;;;;;;;5068458;28;20055;-68
2021/03/02 00:03:31;;;;;;;;;;;;;;;;;;5067813;28;20523;-68
2021/03/02 00:05:58;;;;;;;67.40;9.38;;;;;;;;;;5065923;28;19920;-68
2021/03/02 00:08:24;;;;;;;77.60;9.40;;;;;;;;;;5068002;28;20044;-68
2021/03/02 00:10:51;;;;;;;67.45;9.43;;;;;;;;;;5066998;28;20295;-69
2021/03/02 00:13:17;;;;;;;57.85;8.82;;;;;;;;;;5068889;28;20569;-68
2021/03/02 00:15:44;;;;;;;74.15;9.82;;;;;;;;;;5066505;28;20039;-68
2021/03/02 00:18:11;;;;;;;66.85;8.95;;;;;;;;;;5061345;28;20041;-68
2021/03/02 00:20:39;;;;;;;65.53;8.98;;;;;;;;;;5068040;28;20120;-68
2021/03/02 00:23:07;;;;;;;51.22;7.50;;;;;;;;;;5071151;28;20048;-68
2021/03/02 00:25:33;;;;;;;67.70;9.52;;;;;;;;;;5070034;28;20059;-68
2021/03/02 00:28:00;;;;;;;54.60;7.97;;;;;;;;;;5066614;28;20480;-68
2021/03/02 00:30:27;;;;;;;64.37;6.13;;;;;;;;;;5062862;28;20045;-68
2021/03/02 00:32:54;;;;;;;51.08;6.10;;;;;;;;;;5068505;28;20047;-68
2021/03/02 00:35:20;;;;;;;;;;;;;;;;;;5068258;28;20044;-68
2021/03/02 00:37:48;;;;;;;60.28;8.20;;;;;;;;;;5071586;28;19927;-68
2021/03/02 00:40:16;;;;;;;63.22;8.57;;;;;;;;;;5063994;28;20041;-68
2021/03/02 00:42:48;;;;;;;67.22;8.65;;;;;;;;;;5068593;28;20455;-68
2021/03/02 00:45:15;;;;;;;56.85;7.35;;;;;;;;;;5065848;28;20481;-69
2021/03/02 00:47:42;;;;;;;60.47;7.82;;;;;;;;;;5065833;28;20628;-69
2021/03/02 00:50:09;;;;;;;71.47;8.77;;;;;;;;;;5063943;28;20045;-68
2021/03/02 00:52:36;;;;;;;48.72;6.57;;;;;;;;;;5068433;28;20044;-68
2021/03/02 00:55:04;;;;;;;65.03;7.95;;;;;;;;;;5067301;28;20037;-68
2021/03/02 00:57:30;;;;;;;55.67;7.40;;;;;;;;;;5065403;28;20095;-69
2021/03/02 00:59:58;;;;;;;63.42;9.18;;;;;;;;;;5066214;28;20116;-68
2021/03/02 01:02:24;;;;;;;55.60;7.67;;;;;;;;;;5065663;28;20103;-68
2021/03/02 01:04:51;;;;;;;68.53;8.77;;;;;;;;;;5061280;28;20037;-68
2021/03/02 01:07:18;;;;;;;59.28;6.97;;;;;;;;;;5066994;28;20134;-68
2021/03/02 01:09:46;;;;;;;49.60;6.30;;;;;;;;;;5072016;28;20768;-68
2021/03/02 01:12:12;;;;;;;67.93;8.27;;;;;;;;;;5067478;28;20048;-69
2021/03/02 01:14:42;;;;;;;50.40;6.95;;;;;;;;;;5064201;28;20102;-69
2021/03/02 01:17:08;;;;;;;59.70;8.45;;;;;;;;;;5064990;28;20048;-68
2021/03/02 01:19:35;;;;;;;69.70;8.50;;;;;;;;;;5070204;28;20500;-68
2021/03/02 01:22:01;;;;;;;41.33;7.10;;;;;;;;;;5065724;28;20055;-68
2021/03/02 01:24:27;;;;;;;63.63;8.20;;;;;;;;;;5066517;28;20300;-69
2021/03/02 01:26:54;;;;;;;58.85;8.85;;;;;;;;;;5067357;28;20044;-69
2021/03/02 01:29:20;;;;;;;77.43;8.25;;;;;;;;;;5063902;28;20055;-68
2021/03/02 01:31:46;;;;;;;55.60;8.32;;;;;;;;;;5064219;28;20496;-69
2021/03/02 01:34:13;;;;;;;58.20;8.30;;;;;;;;;;5072282;28;20075;-68
2021/03/02 01:36:39;;;;;;;65.28;8.05;;;;;;;;;;5061140;28;20049;-68
2021/03/02 01:39:05;;;;;;;61.03;8.32;;;;;;;;;;5068307;28;20150;-68
2021/03/02 01:41:31;;;;;;;61.45;7.97;;;;;;;;;;5062177;28;20061;-68
2021/03/02 01:43:58;;;;;;;55.53;7.28;;;;;;;;;;5063039;28;20049;-68
2021/03/02 01:46:24;;;;;;;61.38;7.00;;;;;;;;;;5069940;28;20492;-68
2021/03/02 01:48:51;;;;;;;52.53;5.80;;;;;;;;;;5067738;28;20044;-68
2021/03/02 01:51:17;;;;;;;54.75;6.72;;;;;;;;;;5066122;28;20295;-68
2021/03/02 01:53:44;;;;;;;53.67;7.63;;;;;;;;;;5062448;28;20045;-68
2021/03/02 01:56:10;;;;;;;59.22;6.72;;;;;;;;;;5064493;28;20131;-69
2021/03/02 01:58:36;;;;;;;59.65;7.43;;;;;;;;;;5068954;28;20825;-68
2021/03/02 02:01:07;;;;;;;55.78;7.88;;;;;;;;;;5063544;28;20119;-68
2021/03/02 02:03:40;;;;;;;62.85;7.45;;;;;;;;;;5064730;28;20033;-69
2021/03/02 02:06:12;;;;;;;56.28;8.13;;;;;;;;;;5064802;28;20127;-68
2021/03/02 02:08:45;;;;;;;79.50;7.50;;;;;;;;;;5070177;28;20048;-68
2021/03/02 02:11:18;;;;;;;54.00;6.22;;;;;;;;;;5065183;28;20079;-68
2021/03/02 02:14:01;;;;;;;72.68;7.20;;;;;;;;;;5065927;28;20462;-68
2021/03/02 02:16:28;;;;;;;67.65;7.07;;;;;;;;;;5064702;28;20120;-68
2021/03/02 02:18:55;;;;;;;47.35;6.15;;;;;;;;;;5063784;28;20120;-68
2021/03/02 02:21:30;;;;;;;66.00;6.67;;;;;;;;;;5068251;28;20055;-69
2021/03/02 02:24:03;;;;;;;67.05;7.72;;;;;;;;;;5067308;28;20045;-68
2021/03/02 02:26:41;;;;;;;108.82;9.07;;;;;;;;;;5061404;28;20059;-68
2021/03/02 02:29:07;;;;;;;;;;;;;;;;;;5063360;28;20063;-68
2021/03/02 02:31:34;;;;;;;117.35;7.93;;;;;;;;;;5064505;28;20543;-68
2021/03/02 02:34:01;;;;;;;44.90;6.10;;;;;;;;;;5060260;28;20048;-68
2021/03/02 02:36:30;;;;;;;53.88;6.60;;;;;;;;;;5061852;28;20062;-68
2021/03/02 02:38:57;;;;;;;57.72;6.30;;;;;;;;;;5061400;28;20106;-68
2021/03/02 02:41:28;;;;;;;49.60;6.82;;;;;;;;;;5069850;28;20076;-68
2021/03/02 02:44:00;;;;;;;67.70;6.40;;;;;;;;;;5073278;28;20463;-68
2021/03/02 02:46:27;;;;;;;48.57;6.37;;;;;;;;;;5066934;28;20036;-68
2021/03/02 02:48:56;;;;;;;55.58;6.15;;;;;;;;;;5071022;28;20324;-68
2021/03/02 02:51:23;;;;;;;73.97;6.78;;;;;;;;;;5068944;28;20040;-68
2021/03/02 02:53:49;;;;;;;52.13;6.43;;;;;;;;;;5068892;28;20537;-68
2021/03/02 02:56:17;;;;;;;58.90;7.32;;;;;;;;;;5060028;28;20059;-68
2021/03/02 02:59:01;;;;;;;64.65;6.88;;;;;;;;;;5068215;28;20507;-68
2021/03/02 03:01:29;;;;;;;86.15;7.82;;;;;;;;;;5068464;28;20044;-68
2021/03/02 03:03:56;;;;;;;68.30;8.15;;;;;;;;;;5067842;28;20516;-68
2021/03/02 03:06:24;;;;;;;63.95;6.88;;;;;;;;;;5068417;28;20052;-67
2021/03/02 03:08:51;;;;;;;57.45;6.07;;;;;;;;;;5071605;28;20056;-68
2021/03/02 03:11:20;;;;;;;67.03;7.05;;;;;;;;;;5075819;28;20036;-68
2021/03/02 03:13:48;;;;;;;74.97;8.13;;;;;;;;;;5061896;28;20051;-68
2021/03/02 03:16:14;;;;;;;48.80;6.65;;;;;;;;;;5068658;28;20041;-68
2021/03/02 03:18:45;;;;;;;51.80;7.10;;;;;;;;;;5068606;28;20505;-68
2021/03/02 03:21:12;;;;;;;55.65;6.95;;;;;;;;;;5067038;28;20040;-68
2021/03/02 03:23:39;;;;;;;52.10;7.50;;;;;;;;;;5060098;28;20032;-68
2021/03/02 03:26:05;;;;;;;55.33;6.63;;;;;;;;;;5067235;28;20041;-68
2021/03/02 03:28:32;;;;;;;45.58;6.25;;;;;;;;;;5068680;28;20040;-67
2021/03/02 03:30:58;;;;;;;65.80;5.93;;;;;;;;;;5066207;28;20117;-68
2021/03/02 03:33:25;;;;;;;17.40;3.78;;;;;;;;;;5063530;28;20041;-68
2021/03/02 03:35:51;;;;;;;65.18;5.45;;;;;;;;;;5068616;28;20508;-67
2021/03/02 03:38:17;;;;;;;49.30;7.30;;;;;;;;;;5072063;28;20040;-68
2021/03/02 03:40:44;;;;;;;61.63;6.95;;;;;;;;;;5064492;28;20040;-68
2021/03/02 03:43:11;;;;;;;46.80;7.32;;;;;;;;;;5071630;28;20074;-68
2021/03/02 03:45:37;;;;;;;39.33;6.72;;;;;;;;;;5069688;28;20041;-68
2021/03/02 03:48:04;;;;;;;45.35;6.45;;;;;;;;;;5072350;28;20058;-68
2021/03/02 03:50:30;;;;;;;59.53;7.17;;;;;;;;;;5070703;28;20044;-68
2021/03/02 03:52:58;;;;;;;64.22;7.72;;;;;;;;;;5064238;28;20454;-68
2021/03/02 03:55:27;;;;;;;45.70;6.90;;;;;;;;;;5067929;28;20040;-68
2021/03/02 03:57:54;;;;;;;51.83;7.25;;;;;;;;;;5068706;28;20052;-68
2021/03/02 04:00:20;;;;;;;63.97;7.55;;;;;;;;;;5062611;28;20040;-68
2021/03/02 04:02:48;;;;;;;85.13;9.37;;;;;;;;;;5065167;28;20114;-68
2021/03/02 04:05:15;;;;;;;40.65;6.75;;;;;;;;;;5059156;28;20059;-68
2021/03/02 04:07:42;;;;;;;50.17;6.25;;;;;;;;;;5066581;28;20159;-68
2021/03/02 04:10:09;;;;;;;56.13;6.57;;;;;;;;;;5064143;28;20052;-67
2021/03/02 04:12:36;;;;;;;60.75;6.07;;;;;;;;;;5068654;28;20095;-68
2021/03/02 04:15:22;;;;;;;49.22;6.93;;;;;;;;;;5067334;28;20037;-68
2021/03/02 04:17:53;;;;;;;47.83;8.05;;;;;;;;;;5066901;28;20351;-68
2021/03/02 04:20:20;;;;;;;48.80;6.45;;;;;;;;;;5068878;28;20555;-67
2021/03/02 04:22:46;;;;;;;72.50;7.63;;;;;;;;;;5065942;28;20119;-67
2021/03/02 04:25:12;;;;;;;73.93;8.25;;;;;;;;;;5066422;28;20090;-68
2021/03/02 04:27:39;;;;;;;157.48;10.55;;;;;;;;;;5070042;28;20036;-68
2021/03/02 04:30:05;;;;;;;157.80;10.68;;;;;;;;;;5064742;28;20060;-67
2021/03/02 04:32:32;;;;;;;135.18;8.73;;;;;;;;;;5063506;28;20049;-68
2021/03/02 04:34:58;;;;;;;324.63;13.68;;;;;;;;;;5064190;28;20044;-67
2021/03/02 04:37:24;;;;;;;309.48;21.67;;;;;;;;;;5066091;28;20307;-68
2021/03/02 04:39:51;;;;;;;139.35;8.85;;;;;;;;;;5062343;28;20066;-67
2021/03/02 04:42:17;;;;;;;312.88;15.25;;;;;;;;;;5064550;28;20033;-67
2021/03/02 04:44:43;;;;;;;415.70;20.77;;;;;;;;;;5066857;28;20568;-67
2021/03/02 04:47:09;;;;;;;185.18;11.07;;;;;;;;;;5066124;28;20094;-68
2021/03/02 04:49:36;;;;;;;324.75;15.32;;;;;;;;;;5067229;28;20041;-67
2021/03/02 04:52:02;;;;;;;285.73;12.23;;;;;;;;;;5061648;28;20086;-69
2021/03/02 04:54:28;;;;;;;154.82;8.98;;;;;;;;;;5066818;28;20040;-68
2021/03/02 04:56:54;;;;;;;267.20;14.85;;;;;;;;;;5066573;28;20032;-68
2021/03/02 04:59:20;;;;;;;330.73;14.70;;;;;;;;;;5067550;28;20044;-68
2021/03/02 05:01:47;;;;;;;243.43;12.05;;;;;;;;;;5066256;28;20039;-68
2021/03/02 05:04:14;;;;;;;203.20;14.30;;;;;;;;;;5063538;28;20062;-67
2021/03/02 05:06:40;;;;;;;242.10;11.38;;;;;;;;;;5064086;28;20068;-67
2021/03/02 05:09:06;;;;;;;257.70;13.60;;;;;;;;;;5068703;28;20090;-68
2021/03/02 05:11:32;;;;;;;231.63;13.13;;;;;;;;;;5065028;28;20048;-68
2021/03/02 05:13:58;;;;;;;212.48;11.05;;;;;;;;;;5067009;28;20040;-68
2021/03/02 05:16:25;;;;;;;201.55;11.55;;;;;;;;;;5069683;28;20102;-68
2021/03/02 05:18:51;;;;;;;263.30;14.27;;;;;;;;;;5064040;28;20107;-68
2021/03/02 05:21:17;;;;;;;62.17;5.75;;;;;;;;;;5066857;28;20411;-68
2021/03/02 05:23:43;;;;;;;72.47;6.28;;;;;;;;;;5061643;28;20093;-68
2021/03/02 05:26:10;;;;;;;112.47;7.30;;;;;;;;;;5061003;28;20036;-68
2021/03/02 05:28:36;;;;;;;47.65;6.00;;;;;;;;;;5064237;28;20478;-67
2021/03/02 05:31:03;;;;;;;25.60;5.60;;;;;;;;;;5062995;28;20037;-67
2021/03/02 05:33:30;;;;;;;22.80;5.22;;;;;;;;;;5061196;28;20045;-68
2021/03/02 05:35:57;;;;;;;17.55;4.25;;;;;;;;;;5065313;28;20562;-68
2021/03/02 05:38:23;;;;;;;29.73;5.95;;;;;;;;;;5063392;28;20127;-67
2021/03/02 05:40:50;;;;;;;22.10;5.30;;;;;;;;;;5067362;28;20400;-67
2021/03/02 05:43:17;;;;;;;15.17;3.97;;;;;;;;;;5067002;28;20067;-68
2021/03/02 05:45:43;;;;;;;34.28;5.72;;;;;;;;;;5065237;28;20072;-68
2021/03/02 05:48:10;;;;;;;36.33;5.97;;;;;;;;;;5066804;28;20099;-68
2021/03/02 05:50:37;;;;;;;31.38;6.60;;;;;;;;;;5065432;28;20113;-68
2021/03/02 05:53:04;;;;;;;32.58;6.97;;;;;;;;;;5062186;28;20045;-67
2021/03/02 05:55:32;;;;;;;31.77;6.88;;;;;;;;;;5062716;28;20040;-67
2021/03/02 05:57:59;;;;;;;30.67;6.95;;;;;;;;;;5064387;28;20064;-67
2021/03/02 06:00:26;;;;;;;36.75;6.65;;;;;;;;;;5066100;28;20377;-67
2021/03/02 06:02:52;;;;;;;58.17;7.28;;;;;;;;;;5061540;28;20040;-68
2021/03/02 06:05:18;;;;;;;81.75;10.68;;;;;;;;;;5066645;28;20051;-68
2021/03/02 06:07:44;;;;;;;78.68;8.07;;;;;;;;;;5064361;28;20041;-67
2021/03/02 06:10:11;;;;;;;116.53;9.32;;;;;;;;;;5067662;28;20079;-68
2021/03/02 06:12:49;;;;;;;85.80;8.05;;;;;;;;;;5064931;28;20127;-68
2021/03/02 06:15:17;;;;;;;49.75;7.93;;;;;;;;;;5062497;28;20090;-67
2021/03/02 06:18:07;;;;;;;66.78;7.95;;;;;;;;;;5066388;28;20556;-68
2021/03/02 06:20:34;;;;;;;136.13;10.07;;;;;;;;;;5068794;28;20116;-67
2021/03/02 06:23:17;;;;;;;98.27;8.67;;;;;;;;;;5067355;28;20048;-68
2021/03/02 06:25:44;;;;;;;62.38;9.77;;;;;;;;;;5069440;28;20033;-67
2021/03/02 06:28:10;;;;;;;42.05;7.50;;;;;;;;;;5068645;28;20046;-67
2021/03/02 06:30:37;;;;;;;36.85;6.45;;;;;;;;;;5069230;28;20040;-67
2021/03/02 06:33:04;;;;;;;39.35;6.97;;;;;;;;;;5069590;28;20041;-68
2021/03/02 06:35:30;;;;;;;40.72;7.22;;;;;;;;;;5068815;28;20107;-68
2021/03/02 06:37:56;;;;;;;41.25;6.30;;;;;;;;;;5069953;28;20483;-67
2021/03/02 06:40:39;;;;;;;50.95;7.13;;;;;;;;;;5067516;28;20041;-68
2021/03/02 06:43:06;;;;;;;51.70;7.93;;;;;;;;;;5065814;28;20204;-68
2021/03/02 06:45:32;;;;;;;30.00;5.63;;;;;;;;;;5067212;28;20039;-67
2021/03/02 06:48:03;;;;;;;29.95;6.82;;;;;;;;;;5066491;28;20063;-67
2021/03/02 06:50:29;;;;;;;28.90;6.32;;;;;;;;;;5068184;28;20268;-67
2021/03/02 06:52:55;;;;;;;27.17;6.45;;;;;;;;;;5073593;28;20438;-68
2021/03/02 06:55:23;;;;;;;40.92;8.02;;;;;;;;;;5071179;28;20032;-67
2021/03/02 06:57:50;;;;;;;49.83;7.55;;;;;;;;;;5067258;28;20136;-68
2021/03/02 07:00:29;;;;;;;41.88;7.95;;;;;;;;;;5072125;28;20033;-67
2021/03/02 07:02:55;;;;;;;33.17;7.88;;;;;;;;;;5069071;28;20036;-67
2021/03/02 07:05:21;;;;;;;31.30;7.10;;;;;;;;;;5070149;28;20054;-67
2021/03/02 07:07:56;;;;;;;30.10;8.45;;;;;;;;;;5064313;28;20151;-67
2021/03/02 07:10:23;;;;;;;26.77;7.13;;;;;;;;;;5067763;28;20086;-67
2021/03/02 07:12:53;;;;;;;58.65;7.65;;;;;;;;;;5066923;28;20106;-67
2021/03/02 07:15:20;;;;;;;30.58;7.20;;;;;;;;;;5069194;28;20052;-67
2021/03/02 07:17:49;;;;;;;28.75;5.57;;;;;;;;;;5070622;28;20041;-67
2021/03/02 07:20:16;;;;;;;21.40;6.68;;;;;;;;;;5070656;28;20058;-66
2021/03/02 07:22:45;;;;;;;25.13;6.97;;;;;;;;;;5066982;28;20060;-67
2021/03/02 07:25:14;;;;;;;21.55;7.15;;;;;;;;;;5066599;28;20048;-67
2021/03/02 07:27:41;;;;;;;31.70;7.00;;;;;;;;;;5069835;28;20050;-66
2021/03/02 07:30:08;;;;;;;;;;;;;;;;;;5063378;28;20131;-67
2021/03/02 07:32:35;;;;;;;32.45;6.88;;;;;;;;;;5068075;28;19924;-67
2021/03/02 07:35:01;;;;;;;33.50;7.30;;;;;;;;;;5069804;28;20083;-66
2021/03/02 07:37:27;;;;;;;31.70;7.67;;;;;;;;;;5066333;28;20135;-67
2021/03/02 07:40:08;;;;;;;36.05;8.18;;;;;;;;;;5068791;28;20446;-66
2021/03/02 07:42:35;;;;;;;21.88;6.90;;;;;;;;;;5063815;28;20044;-67
2021/03/02 07:45:01;;;;;;;37.38;7.38;;;;;;;;;;5068610;28;20474;-67
2021/03/02 07:47:57;;;;;;;26.13;6.38;;;;;;;;;;5068255;28;20032;-67
2021/03/02 07:50:26;;;;;;;26.30;7.10;;;;;;;;;;5054075;28;20086;-66
2021/03/02 07:53:22;;;;;;;23.05;6.68;;;;;;;;;;5060539;28;20040;-66
2021/03/02 07:56:12;;;;;;;25.73;6.10;;;;;;;;;;5066859;28;20063;-66
2021/03/02 07:58:38;;;;;;;25.00;6.85;;;;;;;;;;5067768;28;20451;-67
2021/03/02 08:01:05;;;;;;;;;;;;;;;;;;5070834;28;20071;-67
2021/03/02 08:03:33;;;;;;;26.00;5.93;;;;;;;;;;5066454;28;20400;-67
2021/03/02 08:06:19;;;;;;;24.08;6.68;;;;;;;;;;5068569;28;20044;-67
2021/03/02 08:08:46;;;;;;;22.25;6.15;;;;;;;;;;5056995;28;20048;-67
2021/03/02 08:11:27;;;;;;;18.60;6.40;;;;;;;;;;5066899;28;20116;-67
2021/03/02 08:13:53;;;;;;;21.08;6.28;;;;;;;;;;5067445;28;20033;-67
2021/03/02 08:16:39;;;;;;;19.55;7.57;;;;;;;;;;5069522;28;20071;-68
2021/03/02 08:19:25;;;;;;;32.38;7.30;;;;;;;;;;5064112;28;20036;-67
2021/03/02 08:21:52;;;;;;;19.17;6.68;;;;;;;;;;5069377;28;20413;-67
2021/03/02 08:24:38;;;;;;;31.08;6.97;;;;;;;;;;5069733;28;20040;-67
2021/03/02 08:27:05;;;;;;;19.75;6.28;;;;;;;;;;5067255;28;20049;-67
2021/03/02 08:29:32;;;;;;;29.52;7.53;;;;;;;;;;5065399;28;20093;-67
2021/03/02 08:31:58;;;;;;;17.23;5.32;;;;;;;;;;5069186;28;20036;-67
2021/03/02 08:34:25;;;;;;;18.63;5.90;;;;;;;;;;5068421;28;20115;-67
2021/03/02 08:36:51;;;;;;;24.48;6.20;;;;;;;;;;5066119;28;20055;-67
2021/03/02 08:39:19;;;;;;;18.90;5.30;;;;;;;;;;5067272;28;20539;-67
2021/03/02 08:41:47;;;;;;;23.65;6.32;;;;;;;;;;5068199;28;20039;-68
2021/03/02 08:44:13;;;;;;;;;;;;;;;;;;5069719;28;20488;-68
2021/03/02 08:46:39;;;;;;;18.35;5.45;;;;;;;;;;5068526;28;19920;-68
2021/03/02 08:49:10;;;;;;;13.20;4.07;;;;;;;;;;5068661;28;20048;-68
2021/03/02 08:51:37;;;;;;;20.70;5.35;;;;;;;;;;5065257;28;20078;-68
2021/03/02 08:54:03;;;;;;;15.43;4.73;;;;;;;;;;5067056;28;20710;-68
2021/03/02 08:56:31;;;;;;;23.33;4.95;;;;;;;;;;5069525;28;20041;-68
2021/03/02 08:59:07;;;;;;;14.93;4.70;;;;;;;;;;5065905;28;20052;-68
2021/03/02 09:01:34;;;;;;;13.80;4.38;;;;;;;;;;5068628;28;20039;-68
2021/03/02 09:04:09;;;;;;;22.27;4.70;;;;;;;;;;5064360;28;21486;-68
2021/03/02 09:06:37;;;;;;;16.88;3.97;;;;;;;;;;5067976;28;20062;-68
2021/03/02 09:09:06;;;;;;;17.33;4.45;;;;;;;;;;5066846;28;20040;-68
2021/03/02 09:11:35;;;;;;;20.60;4.80;;;;;;;;;;5070716;28;20048;-68
2021/03/02 09:14:10;;;;;;;13.98;4.03;;;;;;;;;;5064663;28;20128;-69
2021/03/02 09:16:39;;;;;;;18.00;4.40;;;;;;;;;;5066688;28;20077;-69
2021/03/02 09:19:07;;;;;;;18.27;3.90;;;;;;;;;;5068332;28;20049;-69
2021/03/02 09:21:33;;;;;;;;;;;;;;;;;;5067866;28;20449;-68
2021/03/02 09:24:01;;;;;;;20.42;4.40;;;;;;;;;;5067479;28;19920;-68
2021/03/02 09:26:28;;;;;;;18.83;3.83;;;;;;;;;;5063767;28;20045;-68
2021/03/02 09:28:55;;;;;;;13.25;3.83;;;;;;;;;;5065106;28;20036;-68
2021/03/02 09:31:22;;;;;;;20.73;3.80;;;;;;;;;;5068391;28;20048;-69
2021/03/02 09:33:49;;;;;;;21.42;4.03;;;;;;;;;;5065219;28;20064;-69
2021/03/02 09:36:16;;;;;;;16.70;3.53;;;;;;;;;;5065610;28;20516;-69
2021/03/02 09:38:43;;;;;;;12.65;4.20;;;;;;;;;;5067019;28;20041;-68
2021/03/02 09:41:09;;;;;;;15.68;4.25;;;;;;;;;;5067692;28;20047;-68
2021/03/02 09:43:36;;;;;;;17.15;3.15;;;;;;;;;;5066084;28;20044;-69
2021/03/02 09:46:03;;;;;;;24.58;4.43;;;;;;;;;;5064859;28;20050;-68
2021/03/02 09:48:46;;;;;;;27.10;4.80;;;;;;;;;;5065350;28;20061;-68
2021/03/02 09:51:28;;;;;;;24.10;4.60;;;;;;;;;;5062713;28;20098;-68
2021/03/02 09:54:13;;;;;;;16.67;3.33;;;;;;;;;;5068998;28;20086;-69
2021/03/02 09:56:54;;;;;;;17.80;3.85;;;;;;;;;;5066618;28;20419;-69
2021/03/02 09:59:21;;;;;;;14.95;3.30;;;;;;;;;;5064945;28;20715;-69
2021/03/02 10:01:48;;;;;;;12.68;3.00;;;;;;;;;;5065911;28;20037;-69
2021/03/02 10:04:15;;;;;;;8.10;2.53;;;;;;;;;;5063642;28;20048;-69
2021/03/02 10:06:41;;;;;;;15.77;3.72;;;;;;;;;;5064315;28;20038;-69
2021/03/02 10:09:27;;;;;;;14.63;3.65;;;;;;;;;;5065451;28;20041;-69
2021/03/02 10:12:07;;;;;;;19.98;4.10;;;;;;;;;;5064359;28;20048;-69
2021/03/02 10:14:37;;;;;;;17.33;3.95;;;;;;;;;;5064894;28;20045;-70
2021/03/02 10:17:04;;;;;;;12.85;3.25;;;;;;;;;;5066307;28;20507;-69
2021/03/02 10:19:44;;;;;;;14.43;3.28;;;;;;;;;;5064127;28;20049;-70
2021/03/02 10:22:12;;;;;;;16.07;2.97;;;;;;;;;;5068109;28;20120;-69
2021/03/02 10:24:40;;;;;;;14.77;3.38;;;;;;;;;;5068732;28;20059;-70
2021/03/02 10:27:10;;;;;;;17.67;2.80;;;;;;;;;;5067082;28;20450;-69
2021/03/02 10:29:36;;;;;;;17.83;3.20;;;;;;;;;;5063402;28;20045;-69
2021/03/02 10:32:03;;;;;;;12.27;2.85;;;;;;;;;;5065538;28;20036;-69
2021/03/02 10:34:33;;;;;;;11.90;2.83;;;;;;;;;;5066202;28;20025;-69
2021/03/02 10:37:01;;;;;;;14.88;2.88;;;;;;;;;;5065909;28;20036;-70
2021/03/02 10:39:27;;;;;;;8.82;2.47;;;;;;;;;;5067021;28;20135;-70
2021/03/02 10:41:53;;;;;;;10.38;2.85;;;;;;;;;;5067326;28;20048;-71
2021/03/02 10:44:20;;;;;;;13.30;3.03;;;;;;;;;;5065261;28;20045;-70
2021/03/02 10:46:46;;;;;;;9.70;2.70;;;;;;;;;;5062871;28;20115;-70
2021/03/02 10:49:13;;;;;;;16.27;3.70;;;;;;;;;;5068437;28;20051;-70
2021/03/02 10:51:39;;;;;;;24.42;3.00;;;;;;;;;;5068029;28;20576;-71
2021/03/02 10:54:06;;;;;;;6.72;2.53;;;;;;;;;;5060934;28;20049;-70
2021/03/02 10:56:32;;;;;;;12.95;2.75;;;;;;;;;;5063421;28;20112;-71
2021/03/02 10:58:59;;;;;;;16.35;2.75;;;;;;;;;;5065115;28;20051;-71
2021/03/02 11:01:26;;;;;;;13.70;2.88;;;;;;;;;;5068823;28;20040;-70
2021/03/02 11:03:53;;;;;;;8.40;2.15;;;;;;;;;;5063247;28;20101;-70
2021/03/02 11:06:21;;;;;;;10.98;2.50;;;;;;;;;;5070081;28;20040;-70
2021/03/02 11:09:00;;;;;;;7.85;2.42;;;;;;;;;;5069184;28;20128;-70
2021/03/02 11:11:27;;;;;;;;;;;;;;;;;;5073716;28;20044;-70
2021/03/02 11:13:53;;;;;;;10.20;2.33;;;;;;;;;;5071033;28;19920;-70
2021/03/02 11:16:19;;;;;;;8.85;2.60;;;;;;;;;;5065493;28;20041;-71
2021/03/02 11:18:46;;;;;;;8.65;2.13;;;;;;;;;;5068182;28;20048;-71
2021/03/02 11:21:12;;;;;;;8.30;2.23;;;;;;;;;;5070483;28;20125;-71
2021/03/02 11:23:39;;;;;;;7.38;2.13;;;;;;;;;;5070092;28;20317;-70
2021/03/02 11:26:06;;;;;;;6.60;2.10;;;;;;;;;;5069181;28;20042;-71
2021/03/02 11:28:33;;;;;;;7.00;1.90;;;;;;;;;;5067006;28;20052;-71
2021/03/02 11:31:00;;;;;;;6.97;1.73;;;;;;;;;;5069335;28;20041;-72
2021/03/02 11:33:27;;;;;;;3.88;1.88;;;;;;;;;;5069739;28;20033;-71
2021/03/02 11:35:54;;;;;;;4.15;1.75;;;;;;;;;;5070354;28;20063;-71
2021/03/02 11:38:20;;;;;;;5.88;1.90;;;;;;;;;;5069331;28;20041;-71
2021/03/02 11:40:46;;;;;;;8.45;2.03;;;;;;;;;;5065551;28;20044;-71
2021/03/02 11:43:14;;;;;;;4.30;1.50;;;;;;;;;;5067298;28;20133;-71
2021/03/02 11:45:41;;;;;;;3.67;1.70;;;;;;;;;;5070938;28;20044;-71
2021/03/02 11:48:10;;;;;;;12.23;1.80;;;;;;;;;;5064901;28;20048;-72
2021/03/02 11:50:53;;;;;;;5.60;1.80;;;;;;;;;;5064805;28;20120;-71
2021/03/02 11:53:20;;;;;;;5.78;1.75;;;;;;;;;;5067931;28;20037;-71
2021/03/02 11:55:46;;;;;;;5.97;1.58;;;;;;;;;;5069517;28;20555;-71
2021/03/02 11:58:13;;;;;;;6.72;2.10;;;;;;;;;;5068342;28;20360;-71
2021/03/02 12:00:40;;;;;;;6.07;1.73;;;;;;;;;;5069940;28;20123;-71
2021/03/02 12:03:16;;;;;;;5.68;1.88;;;;;;;;;;5062770;28;20044;-72
2021/03/02 12:05:43;;;;;;;9.88;2.15;;;;;;;;;;5063398;28;20113;-71
2021/03/02 12:08:11;;;;;;;10.02;2.22;;;;;;;;;;5065576;28;20041;-72
2021/03/02 12:10:37;;;;;;;5.03;1.88;;;;;;;;;;5076942;28;20055;-71
2021/03/02 12:13:04;;;;;;;4.93;1.38;;;;;;;;;;5070238;28;20071;-71
2021/03/02 12:15:30;;;;;;;5.45;1.50;;;;;;;;;;5066884;28;20044;-71
2021/03/02 12:17:56;;;;;;;10.65;2.20;;;;;;;;;;5066350;28;20094;-71
2021/03/02 12:20:23;;;;;;;6.07;1.83;;;;;;;;;;5066734;28;20051;-72
2021/03/02 12:22:49;;;;;;;5.25;1.67;;;;;;;;;;5067588;28;20045;-72
2021/03/02 12:25:16;;;;;;;11.05;2.17;;;;;;;;;;5065279;28;20036;-71
2021/03/02 12:27:43;;;;;;;5.35;1.77;;;;;;;;;;5062107;28;20661;-72
2021/03/02 12:30:09;;;;;;;5.15;1.75;;;;;;;;;;5067384;28;20392;-71
2021/03/02 12:32:36;;;;;;;8.07;1.70;;;;;;;;;;5065379;28;20048;-72
2021/03/02 12:35:04;;;;;;;4.28;1.60;;;;;;;;;;5064257;28;20517;-72
2021/03/02 12:37:30;;;;;;;6.88;1.73;;;;;;;;;;5062915;28;20049;-72
2021/03/02 12:39:56;;;;;;;5.32;1.90;;;;;;;;;;5066618;28;20051;-72
2021/03/02 12:42:22;;;;;;;8.30;2.15;;;;;;;;;;5066739;28;20044;-72
2021/03/02 12:44:48;;;;;;;6.07;1.73;;;;;;;;;;5067818;28;20044;-72
2021/03/02 12:47:15;;;;;;;8.32;1.50;;;;;;;;;;5065433;28;20068;-72
2021/03/02 12:49:41;;;;;;;6.47;2.03;;;;;;;;;;5069442;28;20036;-72
2021/03/02 12:52:10;;;;;;;3.05;1.45;;;;;;;;;;5060837;28;20439;-72
2021/03/02 12:54:37;;;;;;;5.22;1.90;;;;;;;;;;5070867;28;20094;-73
2021/03/02 12:57:03;;;;;;;5.78;1.77;;;;;;;;;;5069193;28;20562;-72
2021/03/02 12:59:30;;;;;;;8.68;1.92;;;;;;;;;;5065552;28;20446;-72
2021/03/02 13:01:56;;;;;;;6.93;2.00;;;;;;;;;;5066767;28;20111;-72
2021/03/02 13:04:23;;;;;;;8.50;2.55;;;;;;;;;;5065317;28;20412;-74
2021/03/02 13:06:49;;;;;;;8.23;1.90;;;;;;;;;;5066636;28;20459;-73
2021/03/02 13:09:16;;;;;;;9.68;1.95;;;;;;;;;;5066415;28;20048;-73
2021/03/02 13:11:43;;;;;;;10.00;2.17;;;;;;;;;;5066045;28;21660;-72
2021/03/02 13:14:10;;;;;;;4.47;2.10;;;;;;;;;;5063544;28;20040;-72
2021/03/02 13:16:36;;;;;;;11.45;2.30;;;;;;;;;;5066572;28;20037;-72
2021/03/02 13:19:03;;;;;;;7.63;2.08;;;;;;;;;;5064738;28;20078;-72
2021/03/02 13:21:31;;;;;;;7.07;2.13;;;;;;;;;;5065817;28;20103;-72
2021/03/02 13:23:58;;;;;;;7.35;2.42;;;;;;;;;;5062415;28;20127;-72
2021/03/02 13:26:27;;;;;;;12.38;2.95;;;;;;;;;;5064193;28;20037;-72
2021/03/02 13:28:54;;;;;;;10.38;2.10;;;;;;;;;;5062987;28;20396;-72
2021/03/02 13:31:22;;;;;;;6.53;2.03;;;;;;;;;;5063515;28;20040;-72
2021/03/02 13:33:49;;;;;;;8.07;2.25;;;;;;;;;;5066860;28;20114;-73
2021/03/02 13:36:17;;;;;;;10.68;2.65;;;;;;;;;;5066755;28;20064;-72
2021/03/02 13:38:45;;;;;;;12.48;2.53;;;;;;;;;;5067745;28;20044;-73
2021/03/02 13:41:11;;;;;;;9.07;2.40;;;;;;;;;;5066258;28;20060;-73
2021/03/02 13:43:41;;;;;;;8.45;2.08;;;;;;;;;;5065689;28;20036;-72
2021/03/02 13:46:07;;;;;;;10.20;2.53;;;;;;;;;;5064424;28;20037;-72
2021/03/02 13:48:34;;;;;;;10.38;2.70;;;;;;;;;;5066740;28;20059;-73
2021/03/02 13:51:01;;;;;;;11.20;2.50;;;;;;;;;;5068169;28;20430;-72
2021/03/02 13:53:28;;;;;;;11.27;3.08;;;;;;;;;;5066370;28;20495;-72
2021/03/02 13:55:55;;;;;;;8.73;3.00;;;;;;;;;;5066884;28;20112;-73
2021/03/02 13:58:23;;;;;;;11.38;3.00;;;;;;;;;;5068444;28;20037;-72
2021/03/02 14:00:49;;;;;;;10.88;3.15;;;;;;;;;;5066614;28;20033;-72
2021/03/02 14:03:17;;;;;;;10.57;3.35;;;;;;;;;;5066675;28;20052;-72
2021/03/02 14:05:46;;;;;;;19.17;3.85;;;;;;;;;;5067622;28;20040;-73
2021/03/02 14:08:14;;;;;;;14.85;3.42;;;;;;;;;;5068423;28;20552;-73
2021/03/02 14:10:45;;;;;;;13.33;3.30;;;;;;;;;;5064219;28;20052;-72
2021/03/02 14:13:13;;;;;;;14.70;3.28;;;;;;;;;;5060892;28;20036;-72
2021/03/02 14:15:40;;;;;;;14.30;3.67;;;;;;;;;;5065984;28;20044;-72
2021/03/02 14:18:08;;;;;;;15.55;3.70;;;;;;;;;;5062705;28;20041;-73
2021/03/02 14:20:35;;;;;;;12.35;3.67;;;;;;;;;;5067516;28;20044;-72
2021/03/02 14:23:03;;;;;;;24.90;4.00;;;;;;;;;;5066334;28;20117;-73
2021/03/02 14:25:29;;;;;;;15.38;3.63;;;;;;;;;;5065808;28;20032;-72
2021/03/02 14:27:55;;;;;;;19.83;4.15;;;;;;;;;;5067523;28;20040;-73
2021/03/02 14:30:22;;;;;;;17.42;3.80;;;;;;;;;;5061007;28;20049;-73
2021/03/02 14:32:48;;;;;;;13.82;3.78;;;;;;;;;;5065993;28;20045;-73
2021/03/02 14:35:16;;;;;;;20.33;4.32;;;;;;;;;;5064280;28;20067;-72
2021/03/02 14:37:43;;;;;;;16.98;4.18;;;;;;;;;;5067119;28;20596;-72
2021/03/02 14:40:11;;;;;;;26.45;4.43;;;;;;;;;;5068674;28;20377;-72